sensor_id;sensor_type;location;lat;lon;timestamp;pressure;altitude;pressure_sealevel;temperature;humidity
40117;BME280;25829;50.228;18.936;2023-03-29T00:02:36;99217.19;;;-3.52;59.61
40117;BME280;25829;50.228;18.936;2023-03-29T00:05:37;99219.97;;;-3.55;59.58
40117;BME280;25829;50.228;18.936;2023-03-29T00:08:40;99220.16;;;-3.58;59.47
40117;BME280;25829;50.228;18.936;2023-03-29T00:11:41;99212.75;;;-3.62;59.63
40117;BME280;25829;50.228;18.936;2023-03-29T00:14:42;99220.84;;;-3.68;59.62
40117;BME280;25829;50.228;18.936;2023-03-29T00:17:43;99227.97;;;-3.72;59.34
40117;BME280;25829;50.228;18.936;2023-03-29T00:20:44;99218.88;;;-3.78;60.23
40117;BME280;25829;50.228;18.936;2023-03-29T00:23:45;99217.53;;;-3.83;59.96
40117;BME280;25829;50.228;18.936;2023-03-29T00:26:45;99219.28;;;-3.84;60.03
40117;BME280;25829;50.228;18.936;2023-03-29T00:29:46;99221.22;;;-3.87;59.73
40117;BME280;25829;50.228;18.936;2023-03-29T00:32:47;99216.16;;;-3.89;59.72
40117;BME280;25829;50.228;18.936;2023-03-29T00:35:48;99212.13;;;-3.93;59.62
40117;BME280;25829;50.228;18.936;2023-03-29T00:38:55;99217.38;;;-3.95;60.18
40117;BME280;25829;50.228;18.936;2023-03-29T00:41:55;99210.66;;;-3.97;59.95
40117;BME280;25829;50.228;18.936;2023-03-29T00:48:22;99213.91;;;-4.08;60.35
40117;BME280;25829;50.228;18.936;2023-03-29T00:51:27;99207.13;;;-4.09;60.94
40117;BME280;25829;50.228;18.936;2023-03-29T00:54:34;99215.22;;;-4.15;60.13
40117;BME280;25829;50.228;18.936;2023-03-29T00:57:41;99213.50;;;-4.29;61.11
40117;BME280;25829;50.228;18.936;2023-03-29T01:00:59;99200.81;;;-4.32;61.64
40117;BME280;25829;50.228;18.936;2023-03-29T01:07:34;99199.34;;;-4.36;61.57
40117;BME280;25829;50.228;18.936;2023-03-29T01:10:44;99200.34;;;-4.38;61.17
40117;BME280;25829;50.228;18.936;2023-03-29T01:13:57;99205.69;;;-4.42;61.43
40117;BME280;25829;50.228;18.936;2023-03-29T01:17:00;99200.72;;;-4.45;61.89
40117;BME280;25829;50.228;18.936;2023-03-29T01:20:14;99197.63;;;-4.50;61.58
40117;BME280;25829;50.228;18.936;2023-03-29T01:30:59;99190.72;;;-4.63;61.86
40117;BME280;25829;50.228;18.936;2023-03-29T01:34:29;99189.44;;;-4.71;62.07
40117;BME280;25829;50.228;18.936;2023-03-29T01:38:00;99186.13;;;-4.73;62.29
40117;BME280;25829;50.228;18.936;2023-03-29T01:41:09;99177.94;;;-4.79;62.38
40117;BME280;25829;50.228;18.936;2023-03-29T01:44:28;99172.81;;;-4.79;61.82
40117;BME280;25829;50.228;18.936;2023-03-29T01:48:09;99171.34;;;-4.83;62.67
40117;BME280;25829;50.228;18.936;2023-03-29T01:51:18;99166.56;;;-4.90;62.33
40117;BME280;25829;50.228;18.936;2023-03-29T01:54:31;99165.19;;;-4.95;62.40
40117;BME280;25829;50.228;18.936;2023-03-29T01:57:42;99169.59;;;-4.97;62.59
40117;BME280;25829;50.228;18.936;2023-03-29T02:00:44;99177.66;;;-5.03;62.86
40117;BME280;25829;50.228;18.936;2023-03-29T02:03:51;99166.72;;;-5.07;62.73
40117;BME280;25829;50.228;18.936;2023-03-29T02:06:55;99171.88;;;-5.07;62.98
40117;BME280;25829;50.228;18.936;2023-03-29T02:10:04;99174.38;;;-5.05;63.01
40117;BME280;25829;50.228;18.936;2023-03-29T02:13:06;99171.88;;;-5.07;63.16
40117;BME280;25829;50.228;18.936;2023-03-29T02:16:09;99179.78;;;-5.10;63.17
40117;BME280;25829;50.228;18.936;2023-03-29T02:19:12;99177.31;;;-5.11;62.88
40117;BME280;25829;50.228;18.936;2023-03-29T02:22:18;99184.38;;;-5.15;62.95
40117;BME280;25829;50.228;18.936;2023-03-29T02:25:23;99188.13;;;-5.21;63.01
40117;BME280;25829;50.228;18.936;2023-03-29T02:28:26;99178.28;;;-5.28;63.50
40117;BME280;25829;50.228;18.936;2023-03-29T02:35:12;99176.81;;;-5.32;63.88
40117;BME280;25829;50.228;18.936;2023-03-29T02:38:14;99170.28;;;-5.38;63.46
40117;BME280;25829;50.228;18.936;2023-03-29T02:41:17;99172.94;;;-5.40;63.96
40117;BME280;25829;50.228;18.936;2023-03-29T02:44:27;99174.06;;;-5.44;64.07
40117;BME280;25829;50.228;18.936;2023-03-29T02:47:38;99182.00;;;-5.48;63.51
40117;BME280;25829;50.228;18.936;2023-03-29T02:50:42;99186.44;;;-5.50;63.82
40117;BME280;25829;50.228;18.936;2023-03-29T02:53:49;99184.03;;;-5.53;63.78
40117;BME280;25829;50.228;18.936;2023-03-29T02:57:03;99177.25;;;-5.54;64.07
40117;BME280;25829;50.228;18.936;2023-03-29T03:00:11;99175.75;;;-5.58;63.81
40117;BME280;25829;50.228;18.936;2023-03-29T03:03:14;99183.44;;;-5.58;64.17
40117;BME280;25829;50.228;18.936;2023-03-29T03:06:17;99191.25;;;-5.60;63.94
40117;BME280;25829;50.228;18.936;2023-03-29T03:09:21;99185.56;;;-5.65;63.66
40117;BME280;25829;50.228;18.936;2023-03-29T03:12:22;99180.66;;;-5.70;63.75
40117;BME280;25829;50.228;18.936;2023-03-29T03:15:24;99182.53;;;-5.72;63.56
40117;BME280;25829;50.228;18.936;2023-03-29T03:18:25;99175.97;;;-5.77;63.95
40117;BME280;25829;50.228;18.936;2023-03-29T03:21:29;99174.22;;;-5.77;64.15
40117;BME280;25829;50.228;18.936;2023-03-29T03:24:39;99180.84;;;-5.73;64.07
40117;BME280;25829;50.228;18.936;2023-03-29T03:27:43;99178.66;;;-5.79;64.22
40117;BME280;25829;50.228;18.936;2023-03-29T03:30:44;99175.31;;;-5.81;64.18
40117;BME280;25829;50.228;18.936;2023-03-29T03:34:09;99178.72;;;-5.80;63.78
40117;BME280;25829;50.228;18.936;2023-03-29T03:37:29;99173.09;;;-5.87;64.22
40117;BME280;25829;50.228;18.936;2023-03-29T03:40:30;99169.78;;;-5.89;64.06
40117;BME280;25829;50.228;18.936;2023-03-29T03:43:32;99169.78;;;-5.89;64.65
40117;BME280;25829;50.228;18.936;2023-03-29T03:46:33;99174.28;;;-5.93;64.37
40117;BME280;25829;50.228;18.936;2023-03-29T03:49:38;99166.63;;;-5.94;64.76
40117;BME280;25829;50.228;18.936;2023-03-29T03:52:38;99166.75;;;-5.96;64.75
40117;BME280;25829;50.228;18.936;2023-03-29T03:55:53;99171.13;;;-5.98;64.44
40117;BME280;25829;50.228;18.936;2023-03-29T03:59:01;99172.94;;;-6.00;64.65
40117;BME280;25829;50.228;18.936;2023-03-29T04:02:10;99179.75;;;-5.99;64.20
40117;BME280;25829;50.228;18.936;2023-03-29T04:05:13;99176.53;;;-6.02;64.38
40117;BME280;25829;50.228;18.936;2023-03-29T04:08:14;99175.88;;;-6.06;64.41
40117;BME280;25829;50.228;18.936;2023-03-29T04:11:44;99174.94;;;-6.05;64.77
40117;BME280;25829;50.228;18.936;2023-03-29T04:14:47;99177.41;;;-6.03;64.51
40117;BME280;25829;50.228;18.936;2023-03-29T04:17:54;99171.56;;;-6.05;64.43
40117;BME280;25829;50.228;18.936;2023-03-29T04:21:06;99164.94;;;-6.10;64.45
40117;BME280;25829;50.228;18.936;2023-03-29T04:24:08;99160.69;;;-6.11;64.65
40117;BME280;25829;50.228;18.936;2023-03-29T04:27:15;99170.06;;;-6.10;64.60
40117;BME280;25829;50.228;18.936;2023-03-29T04:30:16;99163.34;;;-6.12;64.79
40117;BME280;25829;50.228;18.936;2023-03-29T04:33:35;99153.25;;;-6.15;65.19
40117;BME280;25829;50.228;18.936;2023-03-29T04:36:36;99155.91;;;-6.17;64.75
40117;BME280;25829;50.228;18.936;2023-03-29T04:39:57;99162.69;;;-6.16;65.25
40117;BME280;25829;50.228;18.936;2023-03-29T04:43:14;99154.91;;;-6.14;64.80
40117;BME280;25829;50.228;18.936;2023-03-29T04:46:29;99160.69;;;-6.11;65.15
40117;BME280;25829;50.228;18.936;2023-03-29T04:49:49;99157.13;;;-6.08;64.95
40117;BME280;25829;50.228;18.936;2023-03-29T04:53:04;99162.84;;;-6.03;65.13
40117;BME280;25829;50.228;18.936;2023-03-29T04:56:07;99156.03;;;-6.04;64.91
40117;BME280;25829;50.228;18.936;2023-03-29T04:59:35;99163.56;;;-6.01;65.26
40117;BME280;25829;50.228;18.936;2023-03-29T05:02:53;99158.94;;;-5.94;65.28
40117;BME280;25829;50.228;18.936;2023-03-29T05:06:20;99161.88;;;-5.86;65.12
40117;BME280;25829;50.228;18.936;2023-03-29T05:20:37;99163.59;;;-5.41;65.60
40117;BME280;25829;50.228;18.936;2023-03-29T05:28:09;99161.22;;;-5.15;65.57
40117;BME280;25829;50.228;18.936;2023-03-29T06:28:37;99173.09;;;-1.04;62.39
40117;BME280;25829;50.228;18.936;2023-03-29T06:32:55;99166.63;;;-0.76;61.01
40117;BME280;25829;50.228;18.936;2023-03-29T06:36:18;99165.94;;;-0.55;60.92
40117;BME280;25829;50.228;18.936;2023-03-29T06:47:24;99167.09;;;0.06;58.96
40117;BME280;25829;50.228;18.936;2023-03-29T06:51:03;99163.41;;;0.20;57.50
40117;BME280;25829;50.228;18.936;2023-03-29T06:54:41;99169.84;;;0.26;55.29
40117;BME280;25829;50.228;18.936;2023-03-29T07:02:26;99166.84;;;0.42;54.07
40117;BME280;25829;50.228;18.936;2023-03-29T07:05:48;99166.31;;;0.48;53.63
40117;BME280;25829;50.228;18.936;2023-03-29T07:09:17;99169.38;;;0.53;53.29
40117;BME280;25829;50.228;18.936;2023-03-29T07:12:39;99172.28;;;0.59;53.30
40117;BME280;25829;50.228;18.936;2023-03-29T07:16:03;99170.44;;;0.71;52.87
40117;BME280;25829;50.228;18.936;2023-03-29T07:19:21;99173.50;;;0.76;51.11
40117;BME280;25829;50.228;18.936;2023-03-29T07:22:24;99163.78;;;0.78;51.34
40117;BME280;25829;50.228;18.936;2023-03-29T07:25:30;99166.03;;;0.93;52.54
40117;BME280;25829;50.228;18.936;2023-03-29T07:28:33;99165.16;;;1.03;51.88
40117;BME280;25829;50.228;18.936;2023-03-29T07:31:36;99157.41;;;1.13;51.98
40117;BME280;25829;50.228;18.936;2023-03-29T07:35:07;99168.00;;;1.21;50.60
40117;BME280;25829;50.228;18.936;2023-03-29T07:38:09;99160.22;;;1.31;51.53
40117;BME280;25829;50.228;18.936;2023-03-29T07:41:14;99157.53;;;1.42;50.99
40117;BME280;25829;50.228;18.936;2023-03-29T07:44:15;99160.16;;;1.52;51.00
40117;BME280;25829;50.228;18.936;2023-03-29T07:47:17;99164.84;;;1.68;51.02
40117;BME280;25829;50.228;18.936;2023-03-29T07:50:19;99162.84;;;1.91;50.84
40117;BME280;25829;50.228;18.936;2023-03-29T07:53:20;99159.28;;;2.21;49.15
40117;BME280;25829;50.228;18.936;2023-03-29T07:56:23;99157.53;;;2.41;48.71
40117;BME280;25829;50.228;18.936;2023-03-29T07:59:34;99152.72;;;2.46;47.41
40117;BME280;25829;50.228;18.936;2023-03-29T08:02:48;99154.38;;;2.47;47.93
40117;BME280;25829;50.228;18.936;2023-03-29T08:05:50;99151.59;;;2.58;48.71
40117;BME280;25829;50.228;18.936;2023-03-29T08:08:54;99152.69;;;2.75;48.02
40117;BME280;25829;50.228;18.936;2023-03-29T08:11:55;99152.91;;;2.91;47.56
40117;BME280;25829;50.228;18.936;2023-03-29T08:15:09;99138.88;;;3.12;47.77
40117;BME280;25829;50.228;18.936;2023-03-29T08:18:17;99143.16;;;3.31;46.82
40117;BME280;25829;50.228;18.936;2023-03-29T08:21:18;99149.53;;;3.56;47.32
40117;BME280;25829;50.228;18.936;2023-03-29T08:24:22;99134.50;;;3.67;46.35
40117;BME280;25829;50.228;18.936;2023-03-29T08:27:41;99135.56;;;3.75;46.33
40117;BME280;25829;50.228;18.936;2023-03-29T08:30:44;99135.28;;;3.78;46.72
40117;BME280;25829;50.228;18.936;2023-03-29T08:33:45;99141.09;;;3.89;46.27
40117;BME280;25829;50.228;18.936;2023-03-29T08:37:14;99120.38;;;4.06;46.00
40117;BME280;25829;50.228;18.936;2023-03-29T08:40:29;99121.34;;;4.05;45.09
40117;BME280;25829;50.228;18.936;2023-03-29T08:51:00;99121.53;;;4.47;46.52
40117;BME280;25829;50.228;18.936;2023-03-29T08:54:11;99109.84;;;4.59;45.65
40117;BME280;25829;50.228;18.936;2023-03-29T08:57:53;99115.56;;;4.63;45.93
40117;BME280;25829;50.228;18.936;2023-03-29T09:01:12;99117.38;;;4.62;45.57
40117;BME280;25829;50.228;18.936;2023-03-29T09:04:40;99106.72;;;4.56;45.15
40117;BME280;25829;50.228;18.936;2023-03-29T09:08:27;99106.28;;;4.60;44.72
40117;BME280;25829;50.228;18.936;2023-03-29T09:11:47;99105.50;;;4.68;44.13
40117;BME280;25829;50.228;18.936;2023-03-29T09:21:34;99097.25;;;4.81;43.83
40117;BME280;25829;50.228;18.936;2023-03-29T09:28:32;99087.34;;;4.93;42.62
40117;BME280;25829;50.228;18.936;2023-03-29T09:31:41;99088.31;;;4.92;43.45
40117;BME280;25829;50.228;18.936;2023-03-29T09:34:44;99087.97;;;4.95;41.94
40117;BME280;25829;50.228;18.936;2023-03-29T09:37:55;99080.13;;;4.95;42.48
40117;BME280;25829;50.228;18.936;2023-03-29T09:41:44;99073.34;;;5.02;41.67
40117;BME280;25829;50.228;18.936;2023-03-29T09:44:54;99082.03;;;5.10;42.47
40117;BME280;25829;50.228;18.936;2023-03-29T09:48:12;99072.09;;;5.22;42.34
40117;BME280;25829;50.228;18.936;2023-03-29T09:51:34;99075.31;;;5.58;41.81
40117;BME280;25829;50.228;18.936;2023-03-29T09:54:38;99074.28;;;6.26;42.04
40117;BME280;25829;50.228;18.936;2023-03-29T09:58:01;99068.59;;;7.26;41.14
40117;BME280;25829;50.228;18.936;2023-03-29T10:01:19;99065.19;;;8.26;39.87
40117;BME280;25829;50.228;18.936;2023-03-29T10:04:27;99058.53;;;9.12;38.80
40117;BME280;25829;50.228;18.936;2023-03-29T10:07:40;99057.38;;;9.87;39.25
40117;BME280;25829;50.228;18.936;2023-03-29T10:11:31;99049.28;;;10.38;35.47
40117;BME280;25829;50.228;18.936;2023-03-29T10:14:48;99060.88;;;10.72;37.02
40117;BME280;25829;50.228;18.936;2023-03-29T10:18:05;99048.06;;;10.69;37.54
40117;BME280;25829;50.228;18.936;2023-03-29T10:21:23;99043.44;;;10.43;37.09
40117;BME280;25829;50.228;18.936;2023-03-29T10:24:54;99043.25;;;9.95;38.28
40117;BME280;25829;50.228;18.936;2023-03-29T10:28:03;99039.03;;;9.57;37.22
40117;BME280;25829;50.228;18.936;2023-03-29T10:31:06;99044.28;;;9.21;36.84
40117;BME280;25829;50.228;18.936;2023-03-29T10:34:10;99049.03;;;8.81;37.11
40117;BME280;25829;50.228;18.936;2023-03-29T10:37:15;99038.84;;;8.49;35.20
40117;BME280;25829;50.228;18.936;2023-03-29T10:40:21;99040.00;;;7.93;35.93
40117;BME280;25829;50.228;18.936;2023-03-29T10:43:26;99034.25;;;7.67;35.98
40117;BME280;25829;50.228;18.936;2023-03-29T10:46:39;99047.31;;;7.52;34.59
40117;BME280;25829;50.228;18.936;2023-03-29T10:49:45;99028.63;;;7.47;36.54
40117;BME280;25829;50.228;18.936;2023-03-29T10:52:51;99025.53;;;7.43;36.83
40117;BME280;25829;50.228;18.936;2023-03-29T11:34:37;98962.81;;;6.94;38.32
40117;BME280;25829;50.228;18.936;2023-03-29T11:41:28;98961.94;;;7.02;40.00
40117;BME280;25829;50.228;18.936;2023-03-29T11:44:34;98955.22;;;7.08;39.83
40117;BME280;25829;50.228;18.936;2023-03-29T11:47:36;98950.91;;;7.15;40.10
40117;BME280;25829;50.228;18.936;2023-03-29T11:50:47;98942.63;;;7.26;39.78
40117;BME280;25829;50.228;18.936;2023-03-29T11:57:03;98929.47;;;7.34;37.54
40117;BME280;25829;50.228;18.936;2023-03-29T12:00:28;98941.19;;;7.23;37.91
40117;BME280;25829;50.228;18.936;2023-03-29T12:10:56;98930.38;;;7.41;40.14
40117;BME280;25829;50.228;18.936;2023-03-29T12:14:13;98927.22;;;7.46;40.71
40117;BME280;25829;50.228;18.936;2023-03-29T12:17:17;98925.06;;;7.49;40.70
40117;BME280;25829;50.228;18.936;2023-03-29T12:20:24;98925.53;;;7.53;39.65
40117;BME280;25829;50.228;18.936;2023-03-29T12:23:37;98919.00;;;7.49;39.21
40117;BME280;25829;50.228;18.936;2023-03-29T12:33:39;98909.09;;;7.36;40.08
40117;BME280;25829;50.228;18.936;2023-03-29T12:38:13;98898.47;;;7.53;40.06
40117;BME280;25829;50.228;18.936;2023-03-29T12:41:20;98902.47;;;7.63;38.50
40117;BME280;25829;50.228;18.936;2023-03-29T12:44:45;98898.94;;;7.56;38.14
40117;BME280;25829;50.228;18.936;2023-03-29T12:47:56;98890.25;;;7.56;39.74
40117;BME280;25829;50.228;18.936;2023-03-29T12:51:28;98880.81;;;7.61;38.44
40117;BME280;25829;50.228;18.936;2023-03-29T13:01:56;98870.06;;;7.71;38.36
40117;BME280;25829;50.228;18.936;2023-03-29T13:04:59;98878.28;;;7.76;39.52
40117;BME280;25829;50.228;18.936;2023-03-29T13:08:21;98873.56;;;7.86;38.69
40117;BME280;25829;50.228;18.936;2023-03-29T13:11:37;98868.59;;;7.91;38.70
40117;BME280;25829;50.228;18.936;2023-03-29T13:15:01;98865.44;;;7.96;38.25
40117;BME280;25829;50.228;18.936;2023-03-29T13:21:52;98863.63;;;7.96;38.19
40117;BME280;25829;50.228;18.936;2023-03-29T13:35:11;98843.13;;;8.07;37.27
40117;BME280;25829;50.228;18.936;2023-03-29T13:38:24;98841.13;;;8.09;37.70
40117;BME280;25829;50.228;18.936;2023-03-29T13:41:48;98836.53;;;8.11;38.13
40117;BME280;25829;50.228;18.936;2023-03-29T13:52:30;98814.22;;;8.21;37.89
40117;BME280;25829;50.228;18.936;2023-03-29T13:55:39;98822.91;;;8.22;38.95
40117;BME280;25829;50.228;18.936;2023-03-29T13:58:46;98812.97;;;8.17;37.87
40117;BME280;25829;50.228;18.936;2023-03-29T14:01:52;98808.31;;;8.19;38.24
40117;BME280;25829;50.228;18.936;2023-03-29T14:09:44;98808.69;;;8.31;37.49
40117;BME280;25829;50.228;18.936;2023-03-29T14:12:45;98801.22;;;8.35;38.29
40117;BME280;25829;50.228;18.936;2023-03-29T14:16:02;98805.19;;;8.45;38.29
40117;BME280;25829;50.228;18.936;2023-03-29T14:19:15;98804.84;;;8.49;37.68
40117;BME280;25829;50.228;18.936;2023-03-29T14:22:20;98800.75;;;8.46;38.23
40117;BME280;25829;50.228;18.936;2023-03-29T14:25:21;98805.59;;;8.28;36.77
40117;BME280;25829;50.228;18.936;2023-03-29T14:28:44;98801.44;;;8.18;36.40
40117;BME280;25829;50.228;18.936;2023-03-29T14:31:48;98802.88;;;8.06;36.33
40117;BME280;25829;50.228;18.936;2023-03-29T14:34:52;98807.09;;;8.01;37.46
40117;BME280;25829;50.228;18.936;2023-03-29T14:37:57;98805.25;;;8.01;38.01
40117;BME280;25829;50.228;18.936;2023-03-29T14:41:15;98799.00;;;8.02;37.36
40117;BME280;25829;50.228;18.936;2023-03-29T14:44:25;98788.25;;;7.97;37.98
40117;BME280;25829;50.228;18.936;2023-03-29T14:47:54;98788.69;;;8.01;38.54
40117;BME280;25829;50.228;18.936;2023-03-29T14:51:06;98774.19;;;8.05;37.60
40117;BME280;25829;50.228;18.936;2023-03-29T14:54:31;98774.81;;;7.92;35.91
40117;BME280;25829;50.228;18.936;2023-03-29T14:57:35;98769.94;;;7.89;37.93
40117;BME280;25829;50.228;18.936;2023-03-29T15:00:43;98760.63;;;7.86;38.22
40117;BME280;25829;50.228;18.936;2023-03-29T15:04:01;98763.88;;;7.88;38.42
40117;BME280;25829;50.228;18.936;2023-03-29T15:07:03;98761.88;;;7.90;38.85
40117;BME280;25829;50.228;18.936;2023-03-29T15:10:04;98759.25;;;7.90;37.52
40117;BME280;25829;50.228;18.936;2023-03-29T15:13:06;98759.16;;;7.84;37.41
40117;BME280;25829;50.228;18.936;2023-03-29T15:16:18;98758.88;;;7.79;37.41
40117;BME280;25829;50.228;18.936;2023-03-29T15:19:20;98768.22;;;7.81;38.39
40117;BME280;25829;50.228;18.936;2023-03-29T15:22:35;98765.34;;;7.76;37.52
40117;BME280;25829;50.228;18.936;2023-03-29T15:26:05;98760.56;;;7.71;38.13
40117;BME280;25829;50.228;18.936;2023-03-29T15:29:31;98754.72;;;7.69;38.22
40117;BME280;25829;50.228;18.936;2023-03-29T15:32:34;98750.81;;;7.65;38.00
40117;BME280;25829;50.228;18.936;2023-03-29T15:35:35;98751.78;;;7.64;37.55
40117;BME280;25829;50.228;18.936;2023-03-29T15:38:48;98750.38;;;7.62;37.45
40117;BME280;25829;50.228;18.936;2023-03-29T15:41:51;98755.78;;;7.60;38.35
40117;BME280;25829;50.228;18.936;2023-03-29T15:45:05;98749.38;;;7.63;38.17
40117;BME280;25829;50.228;18.936;2023-03-29T15:48:40;98734.63;;;7.62;38.80
40117;BME280;25829;50.228;18.936;2023-03-29T15:52:04;98729.88;;;7.57;38.91
40117;BME280;25829;50.228;18.936;2023-03-29T15:55:15;98735.50;;;7.54;38.80
40117;BME280;25829;50.228;18.936;2023-03-29T15:58:18;98735.03;;;7.50;38.35
40117;BME280;25829;50.228;18.936;2023-03-29T16:04:44;98740.28;;;7.36;38.63
40117;BME280;25829;50.228;18.936;2023-03-29T16:07:52;98741.28;;;7.35;38.39
40117;BME280;25829;50.228;18.936;2023-03-29T16:10:53;98729.53;;;7.31;38.82
40117;BME280;25829;50.228;18.936;2023-03-29T16:13:55;98729.06;;;7.27;38.64
40117;BME280;25829;50.228;18.936;2023-03-29T16:16:59;98724.09;;;7.17;38.51
40117;BME280;25829;50.228;18.936;2023-03-29T16:20:00;98726.41;;;7.12;38.27
40117;BME280;25829;50.228;18.936;2023-03-29T16:23:01;98728.94;;;7.06;38.24
40117;BME280;25829;50.228;18.936;2023-03-29T16:26:10;98715.91;;;6.97;38.45
40117;BME280;25829;50.228;18.936;2023-03-29T16:29:12;98716.25;;;6.94;38.38
40117;BME280;25829;50.228;18.936;2023-03-29T16:32:19;98722.03;;;6.90;38.62
40117;BME280;25829;50.228;18.936;2023-03-29T16:35:31;98740.75;;;6.87;38.37
40117;BME280;25829;50.228;18.936;2023-03-29T16:38:38;98736.84;;;6.83;39.31
40117;BME280;25829;50.228;18.936;2023-03-29T16:41:42;98729.03;;;6.74;38.00
40117;BME280;25829;50.228;18.936;2023-03-29T16:44:44;98731.53;;;6.68;38.88
40117;BME280;25829;50.228;18.936;2023-03-29T16:47:45;98728.28;;;6.66;39.08
40117;BME280;25829;50.228;18.936;2023-03-29T16:50:46;98732.44;;;6.60;38.65
40117;BME280;25829;50.228;18.936;2023-03-29T16:53:50;98736.69;;;6.61;39.10
40117;BME280;25829;50.228;18.936;2023-03-29T16:57:06;98740.63;;;6.57;38.97
40117;BME280;25829;50.228;18.936;2023-03-29T17:00:08;98731.34;;;6.54;39.00
40117;BME280;25829;50.228;18.936;2023-03-29T17:03:15;98738.56;;;6.52;39.24
40117;BME280;25829;50.228;18.936;2023-03-29T17:06:18;98743.78;;;6.52;39.18
40117;BME280;25829;50.228;18.936;2023-03-29T17:09:37;98743.78;;;6.52;39.25
40117;BME280;25829;50.228;18.936;2023-03-29T17:12:43;98738.09;;;6.49;39.77
40117;BME280;25829;50.228;18.936;2023-03-29T17:15:47;98741.50;;;6.49;39.61
40117;BME280;25829;50.228;18.936;2023-03-29T17:18:57;98751.38;;;6.47;39.90
40117;BME280;25829;50.228;18.936;2023-03-29T17:21:59;98746.47;;;6.44;39.92
40117;BME280;25829;50.228;18.936;2023-03-29T17:25:00;98747.16;;;6.38;39.99
40117;BME280;25829;50.228;18.936;2023-03-29T17:28:03;98747.84;;;6.32;39.90
40117;BME280;25829;50.228;18.936;2023-03-29T17:31:05;98758.19;;;6.25;40.14
40117;BME280;25829;50.228;18.936;2023-03-29T17:34:07;98761.34;;;6.21;40.19
40117;BME280;25829;50.228;18.936;2023-03-29T17:37:07;98760.41;;;6.14;40.60
40117;BME280;25829;50.228;18.936;2023-03-29T17:40:09;98763.69;;;6.07;40.91
40117;BME280;25829;50.228;18.936;2023-03-29T17:43:20;98759.31;;;6.00;40.24
40117;BME280;25829;50.228;18.936;2023-03-29T17:46:21;98757.69;;;5.99;40.79
40117;BME280;25829;50.228;18.936;2023-03-29T17:49:22;98760.47;;;5.97;40.88
40117;BME280;25829;50.228;18.936;2023-03-29T17:52:23;98761.81;;;5.93;41.21
40117;BME280;25829;50.228;18.936;2023-03-29T17:55:26;98747.56;;;5.88;41.23
40117;BME280;25829;50.228;18.936;2023-03-29T17:58:27;98751.16;;;5.87;41.37
40117;BME280;25829;50.228;18.936;2023-03-29T18:01:27;98753.31;;;5.83;41.41
40117;BME280;25829;50.228;18.936;2023-03-29T18:04:28;98753.47;;;5.81;41.11
40117;BME280;25829;50.228;18.936;2023-03-29T18:07:31;98752.50;;;5.82;41.08
40117;BME280;25829;50.228;18.936;2023-03-29T18:10:32;98755.78;;;5.76;41.06
40117;BME280;25829;50.228;18.936;2023-03-29T18:13:33;98771.00;;;5.73;41.21
40117;BME280;25829;50.228;18.936;2023-03-29T18:16:36;98771.34;;;5.70;41.57
40117;BME280;25829;50.228;18.936;2023-03-29T18:19:37;98776.09;;;5.66;41.42
40117;BME280;25829;50.228;18.936;2023-03-29T18:22:39;98780.84;;;5.63;41.27
40117;BME280;25829;50.228;18.936;2023-03-29T18:25:41;98779.72;;;5.57;41.02
40117;BME280;25829;50.228;18.936;2023-03-29T18:28:44;98777.44;;;5.54;41.55
40117;BME280;25829;50.228;18.936;2023-03-29T18:31:47;98776.97;;;5.50;41.15
40117;BME280;25829;50.228;18.936;2023-03-29T18:34:48;98775.81;;;5.45;41.41
40117;BME280;25829;50.228;18.936;2023-03-29T18:37:49;98777.28;;;5.39;41.84
40117;BME280;25829;50.228;18.936;2023-03-29T18:40:50;98764.75;;;5.26;41.89
40117;BME280;25829;50.228;18.936;2023-03-29T18:43:51;98768.53;;;5.16;41.96
40117;BME280;25829;50.228;18.936;2023-03-29T18:46:59;98759.19;;;5.05;42.75
40117;BME280;25829;50.228;18.936;2023-03-29T18:50:00;98759.88;;;4.99;42.89
40117;BME280;25829;50.228;18.936;2023-03-29T18:53:02;98763.47;;;4.89;42.81
40117;BME280;25829;50.228;18.936;2023-03-29T18:56:04;98761.66;;;4.82;43.10
40117;BME280;25829;50.228;18.936;2023-03-29T18:59:05;98761.00;;;4.72;43.02
40117;BME280;25829;50.228;18.936;2023-03-29T19:02:06;98761.81;;;4.64;43.42
40117;BME280;25829;50.228;18.936;2023-03-29T19:05:08;98756.25;;;4.59;43.69
40117;BME280;25829;50.228;18.936;2023-03-29T19:08:09;98759.69;;;4.51;43.17
40117;BME280;25829;50.228;18.936;2023-03-29T19:11:11;98762.59;;;4.48;44.06
40117;BME280;25829;50.228;18.936;2023-03-29T19:14:14;98767.34;;;4.45;44.18
40117;BME280;25829;50.228;18.936;2023-03-29T19:17:16;98777.47;;;4.39;44.26
40117;BME280;25829;50.228;18.936;2023-03-29T19:20:17;98771.56;;;4.37;44.22
40117;BME280;25829;50.228;18.936;2023-03-29T19:23:22;98771.06;;;4.34;44.51
40117;BME280;25829;50.228;18.936;2023-03-29T19:26:26;98772.19;;;4.31;44.63
40117;BME280;25829;50.228;18.936;2023-03-29T19:29:28;98769.25;;;4.26;44.78
40117;BME280;25829;50.228;18.936;2023-03-29T19:32:29;98771.84;;;4.18;45.09
40117;BME280;25829;50.228;18.936;2023-03-29T19:35:30;98772.63;;;4.10;44.94
40117;BME280;25829;50.228;18.936;2023-03-29T19:38:31;98770.44;;;3.98;45.30
40117;BME280;25829;50.228;18.936;2023-03-29T19:41:32;98772.53;;;3.86;45.48
40117;BME280;25829;50.228;18.936;2023-03-29T19:44:32;98766.47;;;3.77;45.63
40117;BME280;25829;50.228;18.936;2023-03-29T19:47:35;98764.19;;;3.74;46.16
40117;BME280;25829;50.228;18.936;2023-03-29T19:50:40;98758.91;;;3.66;46.43
40117;BME280;25829;50.228;18.936;2023-03-29T19:53:41;98761.97;;;3.53;46.31
40117;BME280;25829;50.228;18.936;2023-03-29T19:56:42;98748.53;;;3.48;46.72
40117;BME280;25829;50.228;18.936;2023-03-29T19:59:43;98748.03;;;3.44;46.80
40117;BME280;25829;50.228;18.936;2023-03-29T20:02:44;98757.66;;;3.44;47.40
40117;BME280;25829;50.228;18.936;2023-03-29T20:05:45;98747.22;;;3.44;48.05
40117;BME280;25829;50.228;18.936;2023-03-29T20:08:46;98761.66;;;3.38;47.76
40117;BME280;25829;50.228;18.936;2023-03-29T20:11:47;98755.88;;;3.27;47.49
40117;BME280;25829;50.228;18.936;2023-03-29T20:14:47;98756.81;;;3.17;47.76
40117;BME280;25829;50.228;18.936;2023-03-29T20:17:48;98752.00;;;3.05;48.01